Time;durP1;ratioP1;P1;durP2;ratioP2;P2;SDS_P1;SDS_P2;PMS_P1;PMS_P2;Temp;Humidity;BMP_temperature;BMP_pressure;BME280_temperature;BME280_humidity;BME280_pressure;Samples;Min_cycle;Max_cycle;Signal;HPM_P1;HPM_P2
2023/08/02 00:04:41;;;;;;;9.35;8.75;;;;;;;-144.30;62.80;84048.88;5128529;28;20204;-51
2023/08/02 00:07:22;;;;;;;8.90;8.18;;;;;;;-144.30;62.82;84048.88;5129953;28;20189;-48
2023/08/02 00:10:45;;;;;;;9.30;8.60;;;;;;;-144.30;63.22;84064.78;5129849;28;20232;-50
2023/08/02 00:13:36;;;;;;;8.88;8.07;;;;;;;-144.30;63.66;84058.81;5129480;28;20595;-54
2023/08/02 00:16:16;;;;;;;8.65;7.82;;;;;;;-144.30;64.01;84084.66;5129588;28;20633;-53
2023/08/02 00:18:51;;;;;;;9.13;8.45;;;;;;;-144.30;64.22;84082.66;5127954;28;20185;-51
2023/08/02 00:21:43;;;;;;;10.60;8.70;;;;;;;-144.30;64.79;84096.56;5130161;28;20246;-50
2023/08/02 00:24:33;;;;;;;9.45;8.52;;;;;;;-144.30;65.24;84092.59;5129438;28;20234;-55
2023/08/02 00:27:28;;;;;;;14.55;9.25;;;;;;;-144.30;65.42;84116.44;5127090;28;20665;-54
2023/08/02 00:30:25;;;;;;;9.13;8.30;;;;;;;-144.30;65.44;84104.50;5128280;28;20713;-52
2023/08/02 00:33:02;;;;;;;10.48;9.60;;;;;;;-144.30;65.97;84092.59;5129853;28;20204;-54
2023/08/02 00:35:54;;;;;;;10.48;9.68;;;;;;;-144.30;66.29;84032.97;5129204;28;20198;-54
2023/08/02 00:38:46;;;;;;;9.10;8.35;;;;;;;-144.30;66.57;84142.28;5128921;28;20204;-53
2023/08/02 00:41:39;;;;;;;9.65;8.85;;;;;;;-144.30;66.97;84132.34;5129520;28;20280;-54
2023/08/02 00:44:32;;;;;;;9.05;8.25;;;;;;;-144.30;67.45;84172.06;5129379;28;20201;-50
2023/08/02 00:47:29;;;;;;;9.52;8.73;;;;;;;-144.30;67.84;84180.03;5129029;28;20197;-50
2023/08/02 00:50:14;;;;;;;9.27;8.60;;;;;;;-144.30;67.72;84136.31;5128151;28;20221;-51
2023/08/02 00:53:07;;;;;;;9.07;8.25;;;;;;;-144.30;67.77;84124.38;5128481;28;20273;-53
2023/08/02 00:56:03;;;;;;;8.65;8.05;;;;;;;-144.30;67.70;84162.16;5129920;28;20202;-54
2023/08/02 00:59:04;;;;;;;8.45;7.82;;;;;;;-144.30;67.79;84172.06;5129604;28;20205;-51
2023/08/02 01:01:49;;;;;;;8.90;8.10;;;;;;;-144.30;67.56;84116.44;5130598;27;20224;-54
2023/08/02 01:04:55;;;;;;;;;;;;;;;;;;;;;
2023/08/02 01:07:48;;;;;;;11.48;10.00;;;;;;;-144.30;67.85;84172.06;5130015;27;20197;-54
2023/08/02 01:10:40;;;;;;;10.27;9.23;;;;;;;-144.30;68.16;84154.19;5131293;27;20717;-54
2023/08/02 01:13:41;;;;;;;10.18;9.25;;;;;;;-144.30;68.28;84174.06;5131874;27;20272;-55
2023/08/02 01:16:38;;;;;;;9.77;8.93;;;;;;;-144.30;68.51;84106.50;5132107;27;20197;-54
2023/08/02 01:19:33;;;;;;;9.55;8.65;;;;;;;-144.30;68.87;84162.16;5133070;27;20190;-55
2023/08/02 01:22:36;;;;;;;9.00;8.23;;;;;;;-144.30;69.10;84152.22;5133107;27;20216;-50
2023/08/02 01:25:28;;;;;;;9.00;8.27;;;;;;;-144.30;69.18;84187.97;5132672;27;20229;-50
2023/08/02 01:28:29;;;;;;;9.23;8.40;;;;;;;-144.30;69.68;84199.91;5133008;27;20194;-53
2023/08/02 01:31:09;;;;;;;9.50;8.80;;;;;;;-144.30;69.44;84184.00;5130118;27;20297;-50
2023/08/02 01:34:05;;;;;;;8.68;7.97;;;;;;;-144.30;69.56;84235.66;5129780;27;20197;-51
2023/08/02 01:36:44;;;;;;;9.35;8.75;;;;;;;-144.30;69.70;84231.69;5133124;27;20262;-53
2023/08/02 01:39:40;;;;;;;11.13;9.43;;;;;;;-144.30;69.78;84235.66;5132805;27;20189;-54
2023/08/02 01:42:33;;;;;;;;;;;;;;;;;;;;;
2023/08/02 01:45:27;;;;;;;9.65;8.75;;;;;;;-144.30;69.99;84217.78;5131899;27;20196;-50
2023/08/02 01:48:25;;;;;;;9.85;8.82;;;;;;;-144.30;70.16;84164.13;5132523;27;20201;-50
2023/08/02 01:51:17;;;;;;;9.35;8.65;;;;;;;-144.30;70.09;84189.97;5131066;27;20782;-51
2023/08/02 01:54:15;;;;;;;9.90;9.00;;;;;;;-144.30;70.56;84251.56;5130091;27;20224;-50
2023/08/02 01:57:24;;;;;;;;;;;;;;;;;;;;;
2023/08/02 02:00:19;;;;;;;9.43;8.82;;;;;;;-144.30;70.63;84178.03;5128381;27;20201;-51
2023/08/02 02:03:10;;;;;;;10.57;9.65;;;;;;;-144.30;71.00;84187.97;5132622;27;20706;-54
2023/08/02 02:06:05;;;;;;;11.10;10.02;;;;;;;-144.30;70.92;84247.59;5132325;27;20198;-54
2023/08/02 02:08:52;;;;;;;9.02;8.43;;;;;;;-144.30;71.14;84237.66;5131373;27;20202;-48
2023/08/02 02:11:39;;;;;;;11.63;9.75;;;;;;;-144.30;71.09;84243.63;5129085;27;20575;-53
2023/08/02 02:14:50;;;;;;;10.45;9.45;;;;;;;-144.30;71.33;84243.63;5130811;27;20276;-50
2023/08/02 02:17:49;;;;;;;9.82;9.13;;;;;;;-144.30;71.67;84251.56;5129297;27;20197;-50
2023/08/02 02:20:50;;;;;;;10.23;9.32;;;;;;;-144.30;71.51;84255.53;5129946;27;20231;-51
2023/08/02 02:23:48;;;;;;;10.68;9.60;;;;;;;-144.30;71.48;84287.34;5130960;27;20296;-53
2023/08/02 02:26:36;;;;;;;10.38;8.98;;;;;;;-144.30;71.64;84187.97;5131872;27;20717;-54
2023/08/02 02:29:27;;;;;;;9.68;8.88;;;;;;;-144.30;71.58;84229.72;5131784;27;20289;-54
2023/08/02 02:32:19;;;;;;;10.93;9.80;;;;;;;-144.30;71.54;84243.63;5129676;27;20294;-50
2023/08/02 02:35:28;;;;;;;11.82;10.45;;;;;;;-144.30;71.67;84249.59;5131177;27;20322;-51
2023/08/02 02:38:22;;;;;;;9.70;8.95;;;;;;;-144.30;71.74;84267.47;5131170;27;20190;-54
2023/08/02 02:41:15;;;;;;;10.20;9.20;;;;;;;-144.30;71.85;84215.78;5128132;27;20233;-50
2023/08/02 02:44:06;;;;;;;9.75;8.88;;;;;;;-144.30;72.00;84267.47;5130753;27;20198;-50
2023/08/02 02:47:07;;;;;;;10.07;9.27;;;;;;;-144.30;72.21;84251.56;5131637;27;20281;-50
2023/08/02 02:49:47;;;;;;;10.00;9.20;;;;;;;-144.30;72.52;84283.38;5131300;27;20245;-48
2023/08/02 02:52:35;;;;;;;10.55;8.63;;;;;;;-144.30;72.32;84283.38;5131581;27;20229;-50
2023/08/02 02:55:03;;;;;;;10.10;9.20;;;;;;;-144.30;72.47;84299.25;5129600;27;20229;-49
2023/08/02 02:57:40;;;;;;;10.38;9.50;;;;;;;-144.30;72.52;84279.38;5130733;27;20604;-50
2023/08/02 03:00:15;;;;;;;9.95;9.23;;;;;;;-144.30;72.98;84257.53;5131395;27;20230;-54
2023/08/02 03:02:48;;;;;;;9.98;9.38;;;;;;;-144.30;72.64;84315.16;5131373;27;20197;-50
2023/08/02 03:05:26;;;;;;;10.32;9.52;;;;;;;-144.30;73.01;84307.22;5131161;27;20193;-50
2023/08/02 03:08:09;;;;;;;12.13;10.95;;;;;;;-144.30;72.71;84323.13;5130648;27;20266;-51
2023/08/02 03:10:50;;;;;;;11.20;8.68;;;;;;;-144.30;72.64;84287.34;5131259;27;20355;-51
2023/08/02 03:13:36;;;;;;;10.00;9.07;;;;;;;-144.30;72.81;84285.34;5130942;27;20194;-50
2023/08/02 03:16:16;;;;;;;11.40;9.00;;;;;;;-144.30;72.85;84281.38;5128429;27;20186;-49
2023/08/02 03:19:07;;;;;;;9.75;8.85;;;;;;;-144.30;72.72;84299.25;5128434;27;20209;-50
2023/08/02 03:21:41;;;;;;;9.98;9.25;;;;;;;-144.30;72.78;84311.19;5129811;27;20222;-53
2023/08/02 03:24:18;;;;;;;12.27;8.88;;;;;;;-144.30;72.80;84271.44;5129152;27;20231;-50
2023/08/02 03:26:54;;;;;;;10.63;8.75;;;;;;;-144.30;72.82;84303.25;5130446;27;20277;-49
2023/08/02 03:29:22;;;;;;;9.48;8.68;;;;;;;-144.30;72.73;84277.41;5129957;27;20560;-50
2023/08/02 03:31:50;;;;;;;10.07;9.27;;;;;;;-144.30;72.45;84261.50;5127665;27;20273;-51
2023/08/02 03:34:29;;;;;;;9.35;8.75;;;;;;;-144.30;72.57;84275.41;5130517;27;20199;-53
2023/08/02 03:36:58;;;;;;;13.75;9.02;;;;;;;-144.30;72.94;84291.31;5128596;27;20753;-54
2023/08/02 03:39:31;;;;;;;9.60;8.68;;;;;;;-144.30;72.90;84287.34;5130224;27;20643;-54
2023/08/02 03:42:05;;;;;;;10.63;9.63;;;;;;;-144.30;73.10;84295.28;5122890;27;20702;-54
2023/08/02 03:44:35;;;;;;;9.55;8.85;;;;;;;-144.30;72.90;84287.34;5130234;27;20198;-52
2023/08/02 03:47:04;;;;;;;9.82;8.95;;;;;;;-144.30;72.78;84285.34;5130044;27;20198;-50
2023/08/02 03:49:38;;;;;;;10.35;9.20;;;;;;;-144.30;72.59;84283.38;5128250;27;20285;-51
2023/08/02 03:52:16;;;;;;;8.80;7.97;;;;;;;-144.30;72.51;84291.31;5129729;27;20208;-53
2023/08/02 03:55:06;;;;;;;10.60;8.82;;;;;;;-144.30;72.30;84309.19;5130120;27;20193;-54
2023/08/02 03:57:49;;;;;;;9.65;8.70;;;;;;;-144.30;72.44;84259.50;5130413;27;20701;-49
2023/08/02 04:00:48;;;;;;;9.82;9.02;;;;;;;-144.30;72.35;84295.28;5128690;27;20682;-51
2023/08/02 04:03:21;;;;;;;9.23;8.30;;;;;;;-144.30;71.79;84199.91;5126830;28;20203;-53
2023/08/02 04:05:59;;;;;;;9.50;8.75;;;;;;;-144.30;69.05;84112.47;5129148;28;20707;-51
2023/08/02 04:08:46;;;;;;;9.90;8.90;;;;;;;-144.30;66.10;84013.09;5128683;28;20573;-51
2023/08/02 04:11:42;;;;;;;9.18;8.50;;;;;;;-144.30;63.72;83949.50;5128428;28;20275;-53
2023/08/02 04:14:30;;;;;;;9.27;8.57;;;;;;;-144.30;62.76;83911.75;5129556;28;20194;-55
2023/08/02 04:17:25;;;;;;;8.55;8.05;;;;;;;-144.30;63.14;83969.38;5129179;28;20196;-53
2023/08/02 04:20:24;;;;;;;9.63;8.73;;;;;;;-144.30;61.82;83806.44;5129708;28;20692;-50
2023/08/02 04:26:25;;;;;;;13.07;11.85;;;;;;;-144.30;55.92;83524.31;5089964;28;20647;-51
2023/08/02 04:29:03;;;;;;;15.43;14.07;;;;;;;-144.30;51.94;83285.88;5089483;28;20240;-50
2023/08/02 04:31:51;;;;;;;15.65;14.07;;;;;;;-144.30;49.05;83089.22;5087759;28;20303;-51
2023/08/02 04:37:30;;;;;;;18.20;14.75;;;;;;;-144.30;44.96;82817.06;5088339;28;20571;-49
2023/08/02 04:40:35;;;;;;;22.35;15.65;;;;;;;-144.30;45.20;82735.59;5086658;28;20203;-54
2023/08/02 04:43:37;;;;;;;16.75;13.98;;;;;;;-144.30;44.15;82745.53;5092288;28;20203;-51
2023/08/02 04:46:28;;;;;;;14.75;13.55;;;;;;;-144.30;43.02;82612.44;5092978;28;20205;-51
2023/08/02 04:52:02;;;;;;;13.75;12.35;;;;;;;-144.30;40.73;82985.91;5092500;28;20238;-52
2023/08/02 04:54:44;;;;;;;12.98;12.07;;;;;;;-144.30;40.43;82384.03;5093151;28;20202;-52
2023/08/02 04:57:33;;;;;;;12.82;11.55;;;;;;;-144.30;41.96;82499.22;5092913;28;20195;-54
2023/08/02 05:00:21;;;;;;;11.50;10.25;;;;;;;-144.30;42.48;82614.44;5092505;28;20223;-50
2023/08/02 05:09:17;;;;;;;14.00;10.57;;;;;;;-144.30;38.72;82074.19;5092233;28;20361;-53
2023/08/02 05:12:09;;;;;;;13.02;11.68;;;;;;;-144.30;38.58;82070.22;5092442;28;20309;-51
2023/08/02 05:15:19;;;;;;;12.05;11.05;;;;;;;-144.30;38.13;81990.78;5091012;28;20207;-52
2023/08/02 05:18:07;;;;;;;11.40;9.98;;;;;;;-144.30;37.01;81814.03;5091942;28;20301;-53
2023/08/02 05:20:55;;;;;;;10.00;9.10;;;;;;;-144.30;36.36;81667.09;5089536;28;20235;-51
2023/08/02 05:23:22;;;;;;;9.75;8.90;;;;;;;-144.30;35.72;81528.09;5089950;27;20199;-52
2023/08/02 05:26:20;;;;;;;12.60;8.88;;;;;;;-144.30;35.09;81448.66;5132908;27;20221;-53
2023/08/02 05:29:06;;;;;;;11.70;10.48;;;;;;;-144.30;34.64;81462.56;5131189;27;20189;-51
2023/08/02 05:31:46;;;;;;;11.77;10.68;;;;;;;-144.30;35.01;81436.75;5132013;27;20770;-54
2023/08/02 05:34:26;;;;;;;14.10;11.77;;;;;;;-144.30;34.65;81406.97;5131650;27;20280;-54
2023/08/02 05:37:21;;;;;;;14.00;10.93;;;;;;;-144.30;34.50;81404.97;5132149;27;20189;-50
2023/08/02 05:40:12;;;;;;;13.10;11.82;;;;;;;-144.30;34.17;81349.38;5129712;27;20233;-53
2023/08/02 05:42:43;;;;;;;13.45;11.93;;;;;;;-144.30;34.87;81530.06;5132655;27;20194;-51
2023/08/02 05:45:11;;;;;;;18.08;11.20;;;;;;;-144.30;34.98;81569.78;5130095;27;20543;-51
2023/08/02 05:47:43;;;;;;;16.02;13.00;;;;;;;-144.30;34.13;81309.66;5132184;27;20203;-54
2023/08/02 05:50:12;;;;;;;13.45;12.23;;;;;;;-144.30;33.87;81315.63;5131748;27;20185;-55
2023/08/02 05:52:48;;;;;;;13.65;11.80;;;;;;;-144.30;33.31;81202.44;5132592;27;20258;-54
2023/08/02 05:55:35;;;;;;;13.73;12.02;;;;;;;-144.30;32.96;81152.81;5131762;27;20201;-55
2023/08/02 05:58:07;;;;;;;12.85;11.70;;;;;;;-144.30;32.85;81093.25;5128438;27;20212;-54
2023/08/02 06:00:48;;;;;;;13.02;11.95;;;;;;;-144.30;32.58;81123.03;5131901;27;20220;-55
2023/08/02 06:03:59;;;;;;;16.85;12.32;;;;;;;-144.30;33.89;81307.69;5131258;27;20236;-53
2023/08/02 06:06:36;;;;;;;12.77;11.38;;;;;;;-144.30;33.56;81289.81;5130774;27;20685;-51
2023/08/02 06:09:19;;;;;;;12.85;11.55;;;;;;;-144.30;34.15;81478.44;5129822;27;20617;-50
2023/08/02 06:11:47;;;;;;;11.93;10.95;;;;;;;-144.30;34.28;81478.44;5125230;27;20221;-49
2023/08/02 06:14:17;;;;;;;11.57;10.63;;;;;;;-144.30;33.53;81303.72;5130729;27;20198;-51
2023/08/02 06:16:47;;;;;;;11.52;9.70;;;;;;;-144.30;33.66;81291.78;5130479;27;20583;-51
2023/08/02 06:19:21;;;;;;;11.70;10.70;;;;;;;-144.30;32.93;81182.59;5130942;27;20193;-53
2023/08/02 06:21:48;;;;;;;11.85;10.95;;;;;;;-144.30;32.56;81065.44;5131322;27;20211;-50
2023/08/02 06:24:17;;;;;;;12.02;10.70;;;;;;;-144.30;32.92;81325.56;5130855;27;20249;-50
2023/08/02 06:26:49;;;;;;;11.98;10.88;;;;;;;-144.30;32.50;81220.31;5130828;27;20193;-50
2023/08/02 06:29:18;;;;;;;11.80;10.85;;;;;;;-144.30;32.52;81349.38;5131426;27;20193;-51
2023/08/02 06:31:49;;;;;;;11.35;10.60;;;;;;;-144.30;32.95;81528.09;5131205;27;20221;-51
2023/08/02 06:34:19;;;;;;;12.63;11.45;;;;;;;-144.30;33.75;81631.34;5131016;27;20225;-54
2023/08/02 06:36:49;;;;;;;14.48;11.65;;;;;;;-144.30;34.40;81776.31;5131292;27;20198;-53
2023/08/02 06:39:20;;;;;;;12.15;11.07;;;;;;;-144.30;35.71;82068.25;5130849;27;20202;-53
2023/08/02 06:41:54;;;;;;;13.07;11.77;;;;;;;-144.30;37.36;82304.59;5131086;27;20634;-55
2023/08/02 06:44:27;;;;;;;14.75;13.35;;;;;;;-144.30;39.17;82521.09;5130833;27;20281;-53
2023/08/02 06:46:56;;;;;;;21.65;14.63;;;;;;;-144.30;41.11;82753.50;5131299;27;20402;-53
2023/08/02 06:49:28;;;;;;;18.70;16.85;;;;;;;-144.30;42.45;82876.66;5130566;27;20212;-55
2023/08/02 06:52:00;;;;;;;17.60;15.35;;;;;;;-144.30;42.97;82936.25;5130041;27;20644;-52
2023/08/02 06:54:30;;;;;;;19.33;15.05;;;;;;;-144.30;43.86;83003.78;5130348;27;20620;-50
2023/08/02 06:57:02;;;;;;;17.10;15.07;;;;;;;-144.30;44.47;83023.66;5130884;27;20251;-54
2023/08/02 06:59:31;;;;;;;18.73;14.50;;;;;;;-144.30;44.01;82946.16;5130322;27;20215;-54
2023/08/02 07:02:00;;;;;;;19.15;17.17;;;;;;;-144.30;43.53;83287.88;5130913;27;20300;-54
2023/08/02 07:04:30;;;;;;;16.27;14.88;;;;;;;-144.30;42.56;82773.34;5130612;27;20197;-52
2023/08/02 07:06:59;;;;;;;16.23;14.88;;;;;;;-144.30;41.83;82644.22;5130668;27;20190;-53
2023/08/02 07:09:29;;;;;;;15.65;14.05;;;;;;;-144.30;40.84;82523.06;5130696;27;20279;-54
2023/08/02 07:11:59;;;;;;;15.52;13.93;;;;;;;-144.30;39.57;82395.94;5130597;27;20217;-53
2023/08/02 07:14:28;;;;;;;16.38;14.60;;;;;;;-144.30;38.96;82417.78;5130347;27;20277;-53
2023/08/02 07:16:59;;;;;;;16.80;15.38;;;;;;;-144.30;40.62;82590.59;5129541;27;20290;-54
2023/08/02 07:19:27;;;;;;;16.77;15.10;;;;;;;-144.30;40.46;82586.63;5130344;27;20281;-54
2023/08/02 07:22:03;;;;;;;17.08;15.48;;;;;;;-144.30;40.18;82483.34;5130469;27;20202;-56
2023/08/02 07:24:35;;;;;;;16.83;15.25;;;;;;;-144.30;39.91;82386.00;5130376;27;20233;-54
2023/08/02 07:27:06;;;;;;;16.67;14.90;;;;;;;-144.30;39.51;82270.81;5130330;27;20194;-54
2023/08/02 07:29:38;;;;;;;17.70;16.05;;;;;;;-144.30;37.67;82066.25;5130757;27;20198;-54
2023/08/02 07:32:15;;;;;;;15.45;14.35;;;;;;;-144.30;36.27;81929.22;5130039;27;20232;-50
2023/08/02 07:34:53;;;;;;;16.20;14.70;;;;;;;-144.30;35.47;81732.63;5129991;27;20587;-53
2023/08/02 07:40:41;;;;;;;14.25;12.98;;;;;;;-144.30;32.90;81267.97;5128324;27;20329;-54
2023/08/02 07:43:26;;;;;;;13.40;12.60;;;;;;;-144.30;32.00;81041.63;5128653;27;20299;-49
2023/08/02 07:46:06;;;;;;;14.80;13.70;;;;;;;-144.30;31.62;80902.66;5129459;27;20193;-51
2023/08/02 07:48:55;;;;;;;13.35;12.30;;;;;;;-144.30;31.38;80858.97;5129223;27;20201;-51
2023/08/02 07:51:43;;;;;;;16.02;12.73;;;;;;;-144.30;32.08;81123.03;5129532;27;20772;-54
2023/08/02 07:54:43;;;;;;;12.95;11.90;;;;;;;-144.30;31.81;81087.28;5129170;27;20198;-51
2023/08/02 07:57:41;;;;;;;14.18;13.10;;;;;;;-144.30;32.61;81319.59;5129764;27;20212;-53
2023/08/02 08:00:43;;;;;;;13.07;11.77;;;;;;;-144.30;32.67;81188.53;5128110;27;20205;-53
2023/08/02 08:03:33;;;;;;;12.98;11.75;;;;;;;-144.30;31.78;80946.31;5129821;27;20595;-50
2023/08/02 08:06:27;;;;;;;12.95;11.80;;;;;;;-144.30;31.32;80827.19;5125736;28;20225;-50
2023/08/02 08:09:24;;;;;;;;;;;;;;;;;;;;;
2023/08/02 08:12:21;;;;;;;12.63;11.82;;;;;;;-144.30;30.24;80438.09;5129170;27;20225;-51
2023/08/02 08:15:20;;;;;;;13.05;11.93;;;;;;;-144.30;29.80;80465.91;5132475;27;20563;-55
2023/08/02 08:18:16;;;;;;;13.20;12.30;;;;;;;-144.30;29.86;80448.03;5134090;27;20673;-51
2023/08/02 08:21:10;;;;;;;;;;;;;;;;;;;;;
2023/08/02 08:24:10;;;;;;;12.82;11.88;;;;;;;-144.30;30.65;80696.16;5133058;27;20672;-51
2023/08/02 08:27:03;;;;;;;14.88;12.15;;;;;;;-144.30;30.89;80710.06;5134352;27;20704;-53
2023/08/02 08:29:44;;;;;;;12.73;11.60;;;;;;;-144.30;30.56;80648.53;5132824;27;20607;-53
2023/08/02 08:32:47;;;;;;;11.20;10.40;;;;;;;-144.30;30.68;80680.28;5131480;27;20599;-54
2023/08/02 08:35:43;;;;;;;12.25;11.43;;;;;;;-144.30;31.26;80672.34;5130753;27;20602;-51
2023/08/02 08:41:29;;;;;;;13.15;11.70;;;;;;;-144.30;32.00;81069.41;5131886;27;20201;-54
2023/08/02 08:44:15;;;;;;;13.27;11.70;;;;;;;-144.30;32.51;81148.84;5130276;27;20193;-54
2023/08/02 08:47:31;;;;;;;12.40;11.63;;;;;;;-144.30;33.38;81438.72;5131975;27;20233;-53
2023/08/02 08:50:16;;;;;;;11.77;10.98;;;;;;;-144.30;33.74;81379.16;5117140;27;20197;-52
2023/08/02 08:53:13;;;;;;;12.70;11.77;;;;;;;-144.30;34.55;81629.34;5133520;27;20225;-54
2023/08/02 08:56:07;;;;;;;11.95;11.10;;;;;;;-144.30;35.58;81804.09;5133253;27;20285;-54
2023/08/02 09:01:49;;;;;;;12.55;11.48;;;;;;;-144.30;35.83;81675.03;5131204;27;20197;-53
2023/08/02 09:04:44;;;;;;;12.88;11.48;;;;;;;-144.30;34.96;81609.50;5132062;27;20198;-50
2023/08/02 09:07:15;;;;;;;12.32;10.43;;;;;;;-144.30;33.84;81450.66;5131505;27;20194;-54
2023/08/02 09:09:52;;;;;;;11.75;10.68;;;;;;;-144.30;33.67;81301.72;5132961;27;20197;-54
2023/08/02 09:12:23;;;;;;;12.20;11.20;;;;;;;-144.30;33.37;81470.50;5132579;27;20209;-54
2023/08/02 09:15:07;;;;;;;10.98;10.35;;;;;;;-144.30;33.45;81369.22;5132914;27;20233;-54
2023/08/02 09:17:48;;;;;;;11.43;10.65;;;;;;;-144.30;33.28;81339.44;5126286;27;20289;-51
2023/08/02 09:20:35;;;;;;;11.15;10.18;;;;;;;-144.30;33.24;81403.00;5130691;27;20205;-51
2023/08/02 09:23:28;;;;;;;12.05;10.63;;;;;;;-144.30;34.54;81494.31;5130620;27;20201;-51
2023/08/02 09:26:14;;;;;;;12.07;10.98;;;;;;;-144.30;34.18;81432.78;5087980;28;20210;-51
2023/08/02 09:29:01;;;;;;;13.85;10.95;;;;;;;-144.30;33.67;81430.78;5091987;28;20248;-52
2023/08/02 09:31:32;;;;;;;11.88;10.77;;;;;;;-144.30;33.15;81277.91;5091445;28;20257;-50
2023/08/02 09:33:59;;;;;;;11.45;10.27;;;;;;;-144.30;33.01;81275.91;5091525;28;20252;-51
2023/08/02 09:36:33;;;;;;;11.23;10.32;;;;;;;-144.30;33.02;81265.97;5091926;28;20233;-53
2023/08/02 09:39:15;;;;;;;11.80;10.70;;;;;;;-144.30;33.62;81351.34;5091507;28;20281;-54
2023/08/02 09:41:48;;;;;;;10.88;9.88;;;;;;;-144.30;33.39;81317.59;5091496;28;20198;-51
2023/08/02 09:44:24;;;;;;;10.88;9.98;;;;;;;-144.30;33.02;81220.31;5090620;28;20256;-54
2023/08/02 09:46:59;;;;;;;13.45;10.35;;;;;;;-144.30;32.94;81111.13;5091384;28;20247;-54
2023/08/02 09:49:30;;;;;;;12.18;11.13;;;;;;;-144.30;32.67;81140.91;5090327;28;20194;-54
2023/08/02 09:52:02;;;;;;;12.30;11.40;;;;;;;-144.30;32.70;81081.34;5090993;28;20223;-53
2023/08/02 09:54:40;;;;;;;10.95;10.25;;;;;;;-144.30;32.69;81144.88;5091348;28;20202;-52
2023/08/02 09:57:10;;;;;;;11.00;10.05;;;;;;;-144.30;32.97;81337.47;5090991;28;20197;-54
2023/08/02 09:59:40;;;;;;;10.68;9.88;;;;;;;-144.30;33.16;81256.06;5090468;28;20640;-54
2023/08/02 10:02:08;;;;;;;10.60;9.80;;;;;;;-144.30;33.15;81287.81;5090798;28;20199;-52
2023/08/02 10:04:38;;;;;;;10.18;9.63;;;;;;;-144.30;32.50;81236.19;5090410;28;20199;-54
2023/08/02 10:07:13;;;;;;;11.88;10.88;;;;;;;-144.30;32.63;81136.91;5090888;28;20248;-55
2023/08/02 10:09:52;;;;;;;12.02;10.90;;;;;;;-144.30;32.76;81176.63;5091166;28;20198;-56
2023/08/02 10:12:25;;;;;;;9.88;9.27;;;;;;;-144.30;31.91;81103.16;5083207;28;20229;-57
2023/08/02 10:15:00;;;;;;;10.52;9.60;;;;;;;-144.30;31.64;80944.34;5077630;28;20748;-55
2023/08/02 10:17:32;;;;;;;10.75;9.98;;;;;;;-144.30;31.90;80918.53;5070308;28;20207;-50
2023/08/02 10:20:01;;;;;;;14.60;10.20;;;;;;;-144.30;31.85;81134.94;5070975;28;20203;-53
2023/08/02 10:22:30;;;;;;;11.45;10.43;;;;;;;-144.30;32.15;81085.31;5070185;28;20722;-53
2023/08/02 10:25:21;;;;;;;11.05;10.35;;;;;;;-144.30;32.08;81178.63;5094983;28;20229;-50
2023/08/02 10:28:07;;;;;;;11.65;10.65;;;;;;;-144.30;32.07;81228.25;5110234;28;20194;-51
2023/08/02 10:30:46;;;;;;;10.60;9.90;;;;;;;-144.30;31.71;81174.66;5111171;28;20198;-54
2023/08/02 10:33:39;;;;;;;10.63;9.77;;;;;;;-144.30;31.51;81160.75;5110634;28;20221;-51
2023/08/02 10:36:09;;;;;;;9.80;9.18;;;;;;;-144.30;31.66;81246.13;5109555;28;20300;-51
2023/08/02 10:38:52;;;;;;;10.75;9.63;;;;;;;-144.30;32.57;81321.56;5110678;28;20208;-54
2023/08/02 10:41:26;;;;;;;16.27;13.32;;;;;;;-144.30;32.86;81412.91;5110334;28;20224;-54
2023/08/02 10:44:19;;;;;;;11.25;10.25;;;;;;;-144.30;32.92;81454.63;5110571;28;20691;-50
2023/08/02 10:46:49;;;;;;;10.85;10.00;;;;;;;-144.30;32.29;81450.66;5091183;27;20237;-50
2023/08/02 10:49:50;;;;;;;11.20;10.05;;;;;;;-144.30;32.58;81466.53;5130986;27;20672;-58
2023/08/02 10:52:33;;;;;;;11.43;10.50;;;;;;;-144.30;33.53;81635.31;5131053;27;20234;-51
2023/08/02 10:55:06;;;;;;;11.23;10.35;;;;;;;-144.30;33.58;81665.09;5131055;27;20200;-51
2023/08/02 10:57:37;;;;;;;13.43;9.95;;;;;;;-144.30;33.17;81645.25;5130843;27;20197;-54
2023/08/02 11:00:16;;;;;;;11.05;10.05;;;;;;;-144.30;33.38;81720.69;5130598;27;20211;-52
2023/08/02 11:02:48;;;;;;;11.02;10.02;;;;;;;-144.30;33.26;81661.13;5130933;27;20190;-51
2023/08/02 11:05:36;;;;;;;10.35;9.43;;;;;;;-144.30;32.99;81669.06;5130983;27;20740;-51
2023/08/02 11:08:07;;;;;;;11.55;10.52;;;;;;;-144.30;33.30;81750.50;5130588;27;20190;-52
2023/08/02 11:10:47;;;;;;;10.65;9.73;;;;;;;-144.30;33.39;81730.63;5130534;27;20234;-51
2023/08/02 11:13:23;;;;;;;11.32;10.57;;;;;;;-144.30;33.16;81667.09;5130913;27;20760;-51
2023/08/02 11:16:05;;;;;;;11.32;10.52;;;;;;;-144.30;33.42;81714.75;5130083;27;20206;-55
2023/08/02 11:18:34;;;;;;;11.40;10.48;;;;;;;-144.30;33.66;81708.78;5130538;27;20649;-54
2023/08/02 11:21:11;;;;;;;9.55;8.95;;;;;;;-144.30;32.93;81712.75;5130465;27;20198;-54
2023/08/02 11:23:42;;;;;;;10.38;9.68;;;;;;;-144.30;33.09;81659.16;5130249;27;20197;-52
2023/08/02 11:26:16;;;;;;;10.50;9.70;;;;;;;-144.30;32.58;81740.56;5130266;27;20276;-51
2023/08/02 11:28:53;;;;;;;10.40;9.68;;;;;;;-144.30;32.59;81627.38;5130469;27;20205;-51
2023/08/02 11:31:27;;;;;;;10.45;9.75;;;;;;;-144.30;32.32;81897.44;5130033;27;20202;-52
2023/08/02 11:33:57;;;;;;;10.00;9.40;;;;;;;-144.30;32.33;81561.84;5129987;27;20223;-51
2023/08/02 11:36:28;;;;;;;10.27;9.35;;;;;;;-144.30;32.34;81538.00;5129974;27;20194;-54
2023/08/02 11:38:58;;;;;;;10.65;9.95;;;;;;;-144.30;32.07;81647.22;5130102;27;20204;-55
2023/08/02 11:41:27;;;;;;;10.50;9.55;;;;;;;-144.30;32.19;81673.03;5130110;27;20186;-52
2023/08/02 11:44:00;;;;;;;10.40;9.63;;;;;;;-144.30;32.44;81686.94;5129987;27;20193;-54
2023/08/02 11:46:28;;;;;;;12.82;11.90;;;;;;;-144.30;32.04;81577.72;5129452;27;20281;-54
2023/08/02 11:49:08;;;;;;;10.23;9.43;;;;;;;-144.30;31.39;81605.53;5130079;27;20382;-52
2023/08/02 11:51:43;;;;;;;9.98;9.15;;;;;;;-144.30;31.47;81653.19;5130042;27;20197;-50
2023/08/02 11:54:15;;;;;;;10.02;9.10;;;;;;;-144.30;31.45;81647.22;5129584;27;20232;-51
2023/08/02 11:56:47;;;;;;;9.90;9.10;;;;;;;-144.30;31.49;81649.22;5129789;27;20209;-54
2023/08/02 11:59:22;;;;;;;8.85;8.25;;;;;;;-144.30;31.09;81657.16;5129552;27;20650;-55
2023/08/02 12:01:53;;;;;;;9.32;8.63;;;;;;;-144.30;31.25;81706.81;5129777;27;20288;-56
2023/08/02 12:04:21;;;;;;;9.15;8.52;;;;;;;-144.30;31.33;81714.75;5129935;27;20212;-53
2023/08/02 12:06:56;;;;;;;9.48;8.68;;;;;;;-144.30;31.30;81716.72;5129608;27;20194;-54
2023/08/02 12:09:48;;;;;;;10.90;10.10;;;;;;;-144.30;31.24;81772.34;5129595;28;20202;-55
2023/08/02 12:12:19;;;;;;;9.70;8.82;;;;;;;-144.30;31.15;81718.72;5129058;28;20689;-54
2023/08/02 12:14:51;;;;;;;13.85;12.75;;;;;;;-144.30;31.12;81740.56;5129820;28;20205;-55
2023/08/02 12:17:21;;;;;;;10.02;9.25;;;;;;;-144.30;31.10;81734.59;5129526;28;20789;-56
2023/08/02 12:19:49;;;;;;;10.15;9.52;;;;;;;-144.30;31.16;81772.34;5129725;28;20197;-55
2023/08/02 12:22:20;;;;;;;9.43;8.93;;;;;;;-144.30;31.58;81818.00;5129624;28;20197;-54
2023/08/02 12:25:05;;;;;;;11.50;10.82;;;;;;;-144.30;32.16;81820.00;5129327;28;20290;-54
2023/08/02 12:27:35;;;;;;;14.23;12.73;;;;;;;-144.30;32.33;81804.09;5129282;28;20661;-54
2023/08/02 12:30:18;;;;;;;11.20;10.23;;;;;;;-144.30;32.63;81831.91;5129133;28;20319;-53
2023/08/02 12:32:50;;;;;;;10.63;9.98;;;;;;;-144.30;32.51;81851.78;5129254;28;20222;-54
2023/08/02 12:35:21;;;;;;;14.25;13.15;;;;;;;-144.30;32.88;81788.22;5129108;28;20194;-51
2023/08/02 12:37:53;;;;;;;12.13;11.23;;;;;;;-144.30;32.59;81812.06;5129196;28;20197;-51
2023/08/02 12:40:23;;;;;;;10.40;9.68;;;;;;;-144.30;32.27;81722.69;5128833;28;20197;-53
2023/08/02 12:42:57;;;;;;;10.98;10.15;;;;;;;-144.30;31.83;81696.88;5127989;28;20665;-51
2023/08/02 12:45:28;;;;;;;9.98;9.07;;;;;;;-144.30;31.66;81677.00;5128881;28;20193;-52
2023/08/02 12:48:00;;;;;;;10.30;9.35;;;;;;;-144.30;31.82;81708.78;5128884;28;20201;-54
2023/08/02 12:50:28;;;;;;;10.38;9.40;;;;;;;-144.30;32.03;81744.53;5128727;28;20235;-54